sensor_id;sensor_type;location;lat;lon;timestamp;P1;durP1;ratioP1;P2;durP2;ratioP2
27412;SDS011;14871;52.702;5.230;2023-02-13T00:00:11;58.10;;;38.13;;
27412;SDS011;14871;52.702;5.230;2023-02-13T00:02:40;57.30;;;37.83;;
27412;SDS011;14871;52.702;5.230;2023-02-13T00:05:06;58.25;;;38.00;;
27412;SDS011;14871;52.702;5.230;2023-02-13T00:07:32;63.38;;;40.40;;
27412;SDS011;14871;52.702;5.230;2023-02-13T00:09:57;57.60;;;38.80;;
27412;SDS011;14871;52.702;5.230;2023-02-13T00:12:23;61.88;;;39.53;;
27412;SDS011;14871;52.702;5.230;2023-02-13T00:14:49;58.05;;;38.53;;
27412;SDS011;14871;52.702;5.230;2023-02-13T00:17:14;61.05;;;38.97;;
27412;SDS011;14871;52.702;5.230;2023-02-13T00:19:40;60.58;;;38.53;;
27412;SDS011;14871;52.702;5.230;2023-02-13T00:22:05;61.38;;;39.17;;
27412;SDS011;14871;52.702;5.230;2023-02-13T00:24:31;60.28;;;39.90;;
27412;SDS011;14871;52.702;5.230;2023-02-13T00:26:57;56.67;;;38.05;;
27412;SDS011;14871;52.702;5.230;2023-02-13T00:29:22;61.10;;;39.00;;
27412;SDS011;14871;52.702;5.230;2023-02-13T00:31:48;63.15;;;40.28;;
27412;SDS011;14871;52.702;5.230;2023-02-13T00:34:13;64.05;;;41.60;;
27412;SDS011;14871;52.702;5.230;2023-02-13T00:36:39;60.95;;;38.40;;
27412;SDS011;14871;52.702;5.230;2023-02-13T00:39:04;57.25;;;37.88;;
27412;SDS011;14871;52.702;5.230;2023-02-13T00:41:30;59.65;;;37.97;;
27412;SDS011;14871;52.702;5.230;2023-02-13T00:43:56;58.97;;;37.88;;
27412;SDS011;14871;52.702;5.230;2023-02-13T00:46:21;60.30;;;39.28;;
27412;SDS011;14871;52.702;5.230;2023-02-13T00:48:47;57.72;;;38.95;;
27412;SDS011;14871;52.702;5.230;2023-02-13T00:51:13;61.17;;;39.70;;
27412;SDS011;14871;52.702;5.230;2023-02-13T00:53:38;59.88;;;38.67;;
27412;SDS011;14871;52.702;5.230;2023-02-13T00:56:04;63.42;;;38.75;;
27412;SDS011;14871;52.702;5.230;2023-02-13T00:58:31;58.90;;;38.50;;
27412;SDS011;14871;52.702;5.230;2023-02-13T01:00:57;59.08;;;38.05;;
27412;SDS011;14871;52.702;5.230;2023-02-13T01:03:23;59.88;;;39.53;;
27412;SDS011;14871;52.702;5.230;2023-02-13T01:05:49;64.80;;;40.33;;
27412;SDS011;14871;52.702;5.230;2023-02-13T01:08:16;63.65;;;39.88;;
27412;SDS011;14871;52.702;5.230;2023-02-13T01:10:42;60.42;;;39.70;;
27412;SDS011;14871;52.702;5.230;2023-02-13T01:13:12;62.75;;;39.92;;
27412;SDS011;14871;52.702;5.230;2023-02-13T01:15:39;58.78;;;40.13;;
27412;SDS011;14871;52.702;5.230;2023-02-13T01:18:05;60.97;;;39.25;;
27412;SDS011;14871;52.702;5.230;2023-02-13T01:20:31;61.97;;;39.75;;
27412;SDS011;14871;52.702;5.230;2023-02-13T01:22:57;56.33;;;38.45;;
27412;SDS011;14871;52.702;5.230;2023-02-13T01:25:23;62.10;;;39.45;;
27412;SDS011;14871;52.702;5.230;2023-02-13T01:27:49;64.00;;;40.10;;
27412;SDS011;14871;52.702;5.230;2023-02-13T01:30:15;63.28;;;40.13;;
27412;SDS011;14871;52.702;5.230;2023-02-13T01:32:43;63.50;;;41.63;;
27412;SDS011;14871;52.702;5.230;2023-02-13T01:35:10;64.57;;;39.53;;
27412;SDS011;14871;52.702;5.230;2023-02-13T01:37:37;61.33;;;39.22;;
27412;SDS011;14871;52.702;5.230;2023-02-13T01:40:04;62.55;;;39.53;;
27412;SDS011;14871;52.702;5.230;2023-02-13T01:42:31;63.00;;;39.22;;
27412;SDS011;14871;52.702;5.230;2023-02-13T01:45:04;61.42;;;40.47;;
27412;SDS011;14871;52.702;5.230;2023-02-13T01:48:17;60.55;;;38.38;;
27412;SDS011;14871;52.702;5.230;2023-02-13T01:51:20;60.40;;;39.75;;
27412;SDS011;14871;52.702;5.230;2023-02-13T01:53:39;57.92;;;37.58;;
27412;SDS011;14871;52.702;5.230;2023-02-13T01:56:40;59.92;;;36.97;;
27412;SDS011;14871;52.702;5.230;2023-02-13T01:59:10;61.80;;;37.75;;
27412;SDS011;14871;52.702;5.230;2023-02-13T02:01:40;61.67;;;39.08;;
27412;SDS011;14871;52.702;5.230;2023-02-13T02:04:15;55.78;;;36.88;;
27412;SDS011;14871;52.702;5.230;2023-02-13T02:06:54;55.42;;;35.92;;
27412;SDS011;14871;52.702;5.230;2023-02-13T02:09:25;60.90;;;37.90;;
27412;SDS011;14871;52.702;5.230;2023-02-13T02:12:01;55.67;;;35.72;;
27412;SDS011;14871;52.702;5.230;2023-02-13T02:14:35;56.78;;;36.67;;
27412;SDS011;14871;52.702;5.230;2023-02-13T02:17:01;58.92;;;36.38;;
27412;SDS011;14871;52.702;5.230;2023-02-13T02:19:34;58.85;;;37.58;;
27412;SDS011;14871;52.702;5.230;2023-02-13T02:30:38;61.30;;;38.08;;
27412;SDS011;14871;52.702;5.230;2023-02-13T02:33:27;59.70;;;38.92;;
27412;SDS011;14871;52.702;5.230;2023-02-13T02:36:18;58.30;;;36.37;;
27412;SDS011;14871;52.702;5.230;2023-02-13T02:39:01;60.35;;;37.75;;
27412;SDS011;14871;52.702;5.230;2023-02-13T02:44:31;59.38;;;37.60;;
27412;SDS011;14871;52.702;5.230;2023-02-13T02:47:22;61.80;;;38.70;;
27412;SDS011;14871;52.702;5.230;2023-02-13T02:50:15;62.22;;;39.15;;
27412;SDS011;14871;52.702;5.230;2023-02-13T02:52:53;55.00;;;36.92;;
27412;SDS011;14871;52.702;5.230;2023-02-13T02:55:37;61.00;;;37.00;;
27412;SDS011;14871;52.702;5.230;2023-02-13T02:58:32;59.70;;;37.95;;
27412;SDS011;14871;52.702;5.230;2023-02-13T03:01:24;60.60;;;39.25;;
27412;SDS011;14871;52.702;5.230;2023-02-13T03:04:15;63.25;;;40.50;;
27412;SDS011;14871;52.702;5.230;2023-02-13T03:07:14;63.88;;;40.17;;
27412;SDS011;14871;52.702;5.230;2023-02-13T03:09:42;60.22;;;38.40;;
27412;SDS011;14871;52.702;5.230;2023-02-13T03:12:41;59.67;;;38.85;;
27412;SDS011;14871;52.702;5.230;2023-02-13T03:15:34;66.22;;;40.45;;
27412;SDS011;14871;52.702;5.230;2023-02-13T03:18:23;67.10;;;40.75;;
27412;SDS011;14871;52.702;5.230;2023-02-13T03:21:10;61.07;;;39.87;;
27412;SDS011;14871;52.702;5.230;2023-02-13T03:24:14;68.85;;;41.60;;
27412;SDS011;14871;52.702;5.230;2023-02-13T03:27:33;62.90;;;39.22;;
27412;SDS011;14871;52.702;5.230;2023-02-13T03:39:10;64.30;;;39.83;;
27412;SDS011;14871;52.702;5.230;2023-02-13T03:42:02;63.03;;;40.65;;
27412;SDS011;14871;52.702;5.230;2023-02-13T03:44:32;61.33;;;38.30;;
27412;SDS011;14871;52.702;5.230;2023-02-13T03:47:32;62.97;;;39.58;;
27412;SDS011;14871;52.702;5.230;2023-02-13T03:49:58;58.80;;;36.67;;
27412;SDS011;14871;52.702;5.230;2023-02-13T03:55:18;60.90;;;38.03;;
27412;SDS011;14871;52.702;5.230;2023-02-13T03:58:13;58.40;;;37.10;;
27412;SDS011;14871;52.702;5.230;2023-02-13T04:01:01;57.53;;;35.78;;
27412;SDS011;14871;52.702;5.230;2023-02-13T04:06:22;55.08;;;34.50;;
27412;SDS011;14871;52.702;5.230;2023-02-13T04:08:56;57.00;;;35.92;;
27412;SDS011;14871;52.702;5.230;2023-02-13T04:11:27;57.40;;;34.47;;
27412;SDS011;14871;52.702;5.230;2023-02-13T04:13:59;55.60;;;34.88;;
27412;SDS011;14871;52.702;5.230;2023-02-13T04:19:04;54.00;;;34.47;;
27412;SDS011;14871;52.702;5.230;2023-02-13T04:21:32;59.28;;;36.22;;
27412;SDS011;14871;52.702;5.230;2023-02-13T04:23:59;58.75;;;35.70;;
27412;SDS011;14871;52.702;5.230;2023-02-13T04:26:25;53.55;;;34.40;;
27412;SDS011;14871;52.702;5.230;2023-02-13T04:28:57;55.15;;;34.67;;
27412;SDS011;14871;52.702;5.230;2023-02-13T04:31:23;58.13;;;34.15;;
27412;SDS011;14871;52.702;5.230;2023-02-13T04:33:48;55.50;;;33.53;;
27412;SDS011;14871;52.702;5.230;2023-02-13T04:36:14;56.05;;;33.13;;
27412;SDS011;14871;52.702;5.230;2023-02-13T04:38:39;54.28;;;33.72;;
27412;SDS011;14871;52.702;5.230;2023-02-13T04:41:05;55.22;;;33.67;;
27412;SDS011;14871;52.702;5.230;2023-02-13T04:43:31;54.08;;;33.35;;
27412;SDS011;14871;52.702;5.230;2023-02-13T04:45:56;53.97;;;35.05;;
27412;SDS011;14871;52.702;5.230;2023-02-13T04:48:22;55.65;;;34.10;;
27412;SDS011;14871;52.702;5.230;2023-02-13T04:50:47;53.67;;;32.20;;
27412;SDS011;14871;52.702;5.230;2023-02-13T04:53:13;50.10;;;32.65;;
27412;SDS011;14871;52.702;5.230;2023-02-13T04:55:39;56.15;;;32.85;;
27412;SDS011;14871;52.702;5.230;2023-02-13T04:58:04;55.80;;;32.85;;
27412;SDS011;14871;52.702;5.230;2023-02-13T05:00:30;53.83;;;32.35;;
27412;SDS011;14871;52.702;5.230;2023-02-13T05:03:05;53.83;;;33.38;;
27412;SDS011;14871;52.702;5.230;2023-02-13T05:05:33;55.90;;;32.75;;
27412;SDS011;14871;52.702;5.230;2023-02-13T05:07:59;55.00;;;33.08;;
27412;SDS011;14871;52.702;5.230;2023-02-13T05:10:25;55.28;;;32.95;;
27412;SDS011;14871;52.702;5.230;2023-02-13T05:12:51;53.65;;;31.98;;
27412;SDS011;14871;52.702;5.230;2023-02-13T05:15:17;52.40;;;31.23;;
27412;SDS011;14871;52.702;5.230;2023-02-13T05:17:43;53.28;;;31.90;;
27412;SDS011;14871;52.702;5.230;2023-02-13T05:20:09;52.97;;;30.23;;
27412;SDS011;14871;52.702;5.230;2023-02-13T05:22:35;48.10;;;30.60;;
27412;SDS011;14871;52.702;5.230;2023-02-13T05:25:19;53.28;;;30.23;;
27412;SDS011;14871;52.702;5.230;2023-02-13T05:27:45;49.97;;;30.50;;
27412;SDS011;14871;52.702;5.230;2023-02-13T05:30:11;52.20;;;29.02;;
27412;SDS011;14871;52.702;5.230;2023-02-13T05:32:37;50.63;;;29.48;;
27412;SDS011;14871;52.702;5.230;2023-02-13T05:35:03;52.85;;;29.05;;
27412;SDS011;14871;52.702;5.230;2023-02-13T05:37:29;47.33;;;28.02;;
27412;SDS011;14871;52.702;5.230;2023-02-13T05:39:55;51.55;;;28.77;;
27412;SDS011;14871;52.702;5.230;2023-02-13T05:42:21;49.03;;;28.35;;
27412;SDS011;14871;52.702;5.230;2023-02-13T05:44:46;51.13;;;28.92;;
27412;SDS011;14871;52.702;5.230;2023-02-13T05:47:12;47.53;;;27.63;;
27412;SDS011;14871;52.702;5.230;2023-02-13T05:49:37;47.20;;;26.63;;
27412;SDS011;14871;52.702;5.230;2023-02-13T05:52:03;46.10;;;26.58;;
27412;SDS011;14871;52.702;5.230;2023-02-13T05:54:29;47.33;;;27.60;;
27412;SDS011;14871;52.702;5.230;2023-02-13T05:56:54;51.75;;;29.08;;
27412;SDS011;14871;52.702;5.230;2023-02-13T05:59:20;49.30;;;28.85;;
27412;SDS011;14871;52.702;5.230;2023-02-13T06:01:46;45.08;;;26.77;;
27412;SDS011;14871;52.702;5.230;2023-02-13T06:04:11;48.75;;;27.98;;
27412;SDS011;14871;52.702;5.230;2023-02-13T06:06:37;48.75;;;28.40;;
27412;SDS011;14871;52.702;5.230;2023-02-13T06:09:03;52.33;;;29.02;;
27412;SDS011;14871;52.702;5.230;2023-02-13T06:11:28;48.47;;;29.67;;
27412;SDS011;14871;52.702;5.230;2023-02-13T06:13:54;52.53;;;27.73;;
27412;SDS011;14871;52.702;5.230;2023-02-13T06:16:20;49.15;;;28.13;;
27412;SDS011;14871;52.702;5.230;2023-02-13T06:18:46;44.83;;;27.73;;
27412;SDS011;14871;52.702;5.230;2023-02-13T06:21:12;45.25;;;27.25;;
27412;SDS011;14871;52.702;5.230;2023-02-13T06:23:37;49.35;;;27.08;;
27412;SDS011;14871;52.702;5.230;2023-02-13T06:26:04;48.78;;;27.88;;
27412;SDS011;14871;52.702;5.230;2023-02-13T06:28:32;52.15;;;28.30;;
27412;SDS011;14871;52.702;5.230;2023-02-13T06:30:58;52.00;;;29.20;;
27412;SDS011;14871;52.702;5.230;2023-02-13T06:33:23;47.33;;;27.05;;
27412;SDS011;14871;52.702;5.230;2023-02-13T06:35:49;55.78;;;30.50;;
27412;SDS011;14871;52.702;5.230;2023-02-13T06:38:15;57.50;;;30.85;;
27412;SDS011;14871;52.702;5.230;2023-02-13T06:40:43;55.35;;;31.58;;
27412;SDS011;14871;52.702;5.230;2023-02-13T06:43:12;58.65;;;30.95;;
27412;SDS011;14871;52.702;5.230;2023-02-13T06:45:39;49.97;;;30.13;;
27412;SDS011;14871;52.702;5.230;2023-02-13T06:48:05;56.47;;;29.77;;
27412;SDS011;14871;52.702;5.230;2023-02-13T06:50:30;52.30;;;29.42;;
27412;SDS011;14871;52.702;5.230;2023-02-13T06:52:56;55.75;;;29.65;;
27412;SDS011;14871;52.702;5.230;2023-02-13T06:55:21;54.30;;;30.23;;
27412;SDS011;14871;52.702;5.230;2023-02-13T06:57:47;49.72;;;28.77;;
27412;SDS011;14871;52.702;5.230;2023-02-13T07:00:14;54.75;;;30.88;;
27412;SDS011;14871;52.702;5.230;2023-02-13T07:02:41;51.60;;;29.88;;
27412;SDS011;14871;52.702;5.230;2023-02-13T07:05:08;48.33;;;27.73;;
27412;SDS011;14871;52.702;5.230;2023-02-13T07:07:36;53.17;;;29.02;;
27412;SDS011;14871;52.702;5.230;2023-02-13T07:10:04;47.78;;;28.55;;
27412;SDS011;14871;52.702;5.230;2023-02-13T07:12:32;51.83;;;28.33;;
27412;SDS011;14871;52.702;5.230;2023-02-13T07:14:58;49.03;;;28.00;;
27412;SDS011;14871;52.702;5.230;2023-02-13T07:17:24;49.35;;;27.83;;
27412;SDS011;14871;52.702;5.230;2023-02-13T07:19:50;53.92;;;29.42;;
27412;SDS011;14871;52.702;5.230;2023-02-13T07:22:16;54.92;;;29.75;;
27412;SDS011;14871;52.702;5.230;2023-02-13T07:24:42;51.38;;;28.65;;
27412;SDS011;14871;52.702;5.230;2023-02-13T07:27:07;52.40;;;29.80;;
27412;SDS011;14871;52.702;5.230;2023-02-13T07:29:33;55.75;;;29.55;;
27412;SDS011;14871;52.702;5.230;2023-02-13T07:31:59;51.40;;;28.77;;
27412;SDS011;14871;52.702;5.230;2023-02-13T07:34:24;52.17;;;28.77;;
27412;SDS011;14871;52.702;5.230;2023-02-13T07:36:50;50.17;;;28.83;;
27412;SDS011;14871;52.702;5.230;2023-02-13T07:39:16;51.63;;;29.58;;
27412;SDS011;14871;52.702;5.230;2023-02-13T07:41:41;53.67;;;29.95;;
27412;SDS011;14871;52.702;5.230;2023-02-13T07:44:07;52.85;;;29.85;;
27412;SDS011;14871;52.702;5.230;2023-02-13T07:46:33;51.45;;;27.70;;
27412;SDS011;14871;52.702;5.230;2023-02-13T07:48:58;49.28;;;28.15;;
27412;SDS011;14871;52.702;5.230;2023-02-13T07:51:24;54.28;;;27.20;;
27412;SDS011;14871;52.702;5.230;2023-02-13T07:53:52;49.90;;;27.67;;
27412;SDS011;14871;52.702;5.230;2023-02-13T07:56:18;53.35;;;28.40;;
27412;SDS011;14871;52.702;5.230;2023-02-13T07:58:43;51.95;;;28.23;;
27412;SDS011;14871;52.702;5.230;2023-02-13T08:01:10;52.25;;;28.33;;
27412;SDS011;14871;52.702;5.230;2023-02-13T08:03:38;47.65;;;25.17;;
27412;SDS011;14871;52.702;5.230;2023-02-13T08:06:04;48.30;;;27.40;;
27412;SDS011;14871;52.702;5.230;2023-02-13T08:08:31;50.90;;;26.80;;
27412;SDS011;14871;52.702;5.230;2023-02-13T08:10:56;48.13;;;26.33;;
27412;SDS011;14871;52.702;5.230;2023-02-13T08:13:49;45.65;;;24.92;;
27412;SDS011;14871;52.702;5.230;2023-02-13T08:16:15;44.88;;;24.60;;
27412;SDS011;14871;52.702;5.230;2023-02-13T08:18:41;52.25;;;26.90;;
27412;SDS011;14871;52.702;5.230;2023-02-13T08:21:07;42.08;;;24.17;;
27412;SDS011;14871;52.702;5.230;2023-02-13T08:23:32;49.10;;;26.75;;
27412;SDS011;14871;52.702;5.230;2023-02-13T08:25:59;45.85;;;25.42;;
27412;SDS011;14871;52.702;5.230;2023-02-13T08:28:25;45.42;;;24.98;;
27412;SDS011;14871;52.702;5.230;2023-02-13T08:30:51;49.42;;;25.48;;
27412;SDS011;14871;52.702;5.230;2023-02-13T08:33:17;52.85;;;27.67;;
27412;SDS011;14871;52.702;5.230;2023-02-13T08:35:42;48.83;;;26.83;;
27412;SDS011;14871;52.702;5.230;2023-02-13T08:38:08;49.83;;;26.70;;
27412;SDS011;14871;52.702;5.230;2023-02-13T08:40:34;55.88;;;27.50;;
27412;SDS011;14871;52.702;5.230;2023-02-13T08:43:00;61.60;;;29.95;;
27412;SDS011;14871;52.702;5.230;2023-02-13T08:45:26;68.03;;;30.80;;
27412;SDS011;14871;52.702;5.230;2023-02-13T08:47:54;65.90;;;32.60;;
27412;SDS011;14871;52.702;5.230;2023-02-13T08:50:21;69.97;;;33.05;;
27412;SDS011;14871;52.702;5.230;2023-02-13T08:52:47;65.57;;;31.10;;
27412;SDS011;14871;52.702;5.230;2023-02-13T08:55:12;58.28;;;28.20;;
27412;SDS011;14871;52.702;5.230;2023-02-13T08:57:38;50.88;;;27.05;;
27412;SDS011;14871;52.702;5.230;2023-02-13T09:00:04;55.42;;;28.58;;
27412;SDS011;14871;52.702;5.230;2023-02-13T09:02:30;55.58;;;28.73;;
27412;SDS011;14871;52.702;5.230;2023-02-13T09:04:55;57.63;;;29.58;;
27412;SDS011;14871;52.702;5.230;2023-02-13T09:07:21;54.95;;;29.50;;
27412;SDS011;14871;52.702;5.230;2023-02-13T09:09:47;50.45;;;27.52;;
27412;SDS011;14871;52.702;5.230;2023-02-13T09:12:12;49.95;;;27.20;;
27412;SDS011;14871;52.702;5.230;2023-02-13T09:14:38;49.90;;;27.80;;
27412;SDS011;14871;52.702;5.230;2023-02-13T09:17:04;53.55;;;28.20;;
27412;SDS011;14871;52.702;5.230;2023-02-13T09:19:29;55.80;;;27.95;;
27412;SDS011;14871;52.702;5.230;2023-02-13T09:21:55;55.90;;;28.45;;
27412;SDS011;14871;52.702;5.230;2023-02-13T09:24:21;52.25;;;27.48;;
27412;SDS011;14871;52.702;5.230;2023-02-13T09:26:46;54.92;;;27.70;;
27412;SDS011;14871;52.702;5.230;2023-02-13T09:29:12;53.83;;;27.00;;
27412;SDS011;14871;52.702;5.230;2023-02-13T09:31:37;49.42;;;26.25;;
27412;SDS011;14871;52.702;5.230;2023-02-13T09:34:04;50.03;;;26.25;;
27412;SDS011;14871;52.702;5.230;2023-02-13T09:36:29;48.67;;;26.45;;
27412;SDS011;14871;52.702;5.230;2023-02-13T09:38:56;49.75;;;26.98;;
27412;SDS011;14871;52.702;5.230;2023-02-13T09:41:22;50.53;;;28.65;;
27412;SDS011;14871;52.702;5.230;2023-02-13T09:47:13;52.45;;;28.33;;
27412;SDS011;14871;52.702;5.230;2023-02-13T09:49:47;50.78;;;26.98;;
27412;SDS011;14871;52.702;5.230;2023-02-13T09:52:18;55.78;;;27.85;;
27412;SDS011;14871;52.702;5.230;2023-02-13T09:54:44;51.10;;;27.65;;
27412;SDS011;14871;52.702;5.230;2023-02-13T10:08:17;47.65;;;25.98;;
27412;SDS011;14871;52.702;5.230;2023-02-13T10:11:03;46.30;;;26.08;;
27412;SDS011;14871;52.702;5.230;2023-02-13T10:13:49;49.45;;;27.05;;
27412;SDS011;14871;52.702;5.230;2023-02-13T10:16:41;46.45;;;26.17;;
27412;SDS011;14871;52.702;5.230;2023-02-13T10:19:28;49.33;;;28.73;;
27412;SDS011;14871;52.702;5.230;2023-02-13T10:21:58;52.00;;;27.88;;
27412;SDS011;14871;52.702;5.230;2023-02-13T10:27:01;52.83;;;29.40;;
27412;SDS011;14871;52.702;5.230;2023-02-13T10:29:35;52.90;;;29.00;;
27412;SDS011;14871;52.702;5.230;2023-02-13T10:32:33;54.08;;;28.65;;
27412;SDS011;14871;52.702;5.230;2023-02-13T10:37:43;56.33;;;29.80;;
27412;SDS011;14871;52.702;5.230;2023-02-13T10:40:15;52.22;;;30.52;;
27412;SDS011;14871;52.702;5.230;2023-02-13T10:42:44;54.97;;;30.17;;
27412;SDS011;14871;52.702;5.230;2023-02-13T10:48:28;56.60;;;29.35;;
27412;SDS011;14871;52.702;5.230;2023-02-13T10:57:21;51.50;;;28.25;;
27412;SDS011;14871;52.702;5.230;2023-02-13T11:02:51;44.72;;;27.08;;
27412;SDS011;14871;52.702;5.230;2023-02-13T11:05:20;42.15;;;26.40;;
27412;SDS011;14871;52.702;5.230;2023-02-13T11:07:55;44.47;;;27.50;;
27412;SDS011;14871;52.702;5.230;2023-02-13T11:10:22;44.53;;;27.30;;
27412;SDS011;14871;52.702;5.230;2023-02-13T11:12:49;47.13;;;27.10;;
27412;SDS011;14871;52.702;5.230;2023-02-13T11:15:28;43.40;;;27.00;;
27412;SDS011;14871;52.702;5.230;2023-02-13T11:17:59;44.30;;;28.00;;
27412;SDS011;14871;52.702;5.230;2023-02-13T11:20:36;45.55;;;26.52;;
27412;SDS011;14871;52.702;5.230;2023-02-13T11:23:16;41.75;;;27.20;;
27412;SDS011;14871;52.702;5.230;2023-02-13T11:25:51;42.63;;;27.10;;
27412;SDS011;14871;52.702;5.230;2023-02-13T11:28:23;38.72;;;27.25;;
27412;SDS011;14871;52.702;5.230;2023-02-13T11:30:50;42.40;;;27.95;;
27412;SDS011;14871;52.702;5.230;2023-02-13T11:35:41;41.28;;;27.08;;
27412;SDS011;14871;52.702;5.230;2023-02-13T11:40:44;44.67;;;28.90;;
27412;SDS011;14871;52.702;5.230;2023-02-13T11:43:36;41.35;;;27.42;;
27412;SDS011;14871;52.702;5.230;2023-02-13T11:46:29;43.78;;;28.73;;
27412;SDS011;14871;52.702;5.230;2023-02-13T11:49:13;42.90;;;27.27;;
27412;SDS011;14871;52.702;5.230;2023-02-13T11:59:46;46.00;;;29.27;;
27412;SDS011;14871;52.702;5.230;2023-02-13T12:02:30;41.72;;;28.65;;
27412;SDS011;14871;52.702;5.230;2023-02-13T12:07:46;42.50;;;28.90;;
27412;SDS011;14871;52.702;5.230;2023-02-13T12:10:17;41.85;;;28.25;;
27412;SDS011;14871;52.702;5.230;2023-02-13T12:12:44;41.95;;;28.52;;
27412;SDS011;14871;52.702;5.230;2023-02-13T12:15:21;41.40;;;27.95;;
27412;SDS011;14871;52.702;5.230;2023-02-13T12:18:02;41.92;;;29.40;;
27412;SDS011;14871;52.702;5.230;2023-02-13T12:23:32;42.13;;;28.42;;
27412;SDS011;14871;52.702;5.230;2023-02-13T12:31:34;40.80;;;27.55;;
27412;SDS011;14871;52.702;5.230;2023-02-13T12:37:01;39.80;;;27.00;;
27412;SDS011;14871;52.702;5.230;2023-02-13T12:39:31;42.20;;;28.17;;
27412;SDS011;14871;52.702;5.230;2023-02-13T12:49:43;43.65;;;28.83;;
27412;SDS011;14871;52.702;5.230;2023-02-13T12:53:10;41.55;;;27.85;;
27412;SDS011;14871;52.702;5.230;2023-02-13T13:04:26;40.70;;;27.45;;
27412;SDS011;14871;52.702;5.230;2023-02-13T13:12:51;39.95;;;28.30;;
27412;SDS011;14871;52.702;5.230;2023-02-13T13:15:51;43.20;;;28.25;;
27412;SDS011;14871;52.702;5.230;2023-02-13T13:18:41;41.47;;;29.77;;
27412;SDS011;14871;52.702;5.230;2023-02-13T13:21:23;42.95;;;29.98;;
27412;SDS011;14871;52.702;5.230;2023-02-13T13:24:09;44.25;;;29.67;;
27412;SDS011;14871;52.702;5.230;2023-02-13T13:26:42;43.45;;;30.02;;
27412;SDS011;14871;52.702;5.230;2023-02-13T13:29:21;42.78;;;30.35;;
27412;SDS011;14871;52.702;5.230;2023-02-13T13:31:54;42.15;;;29.40;;
27412;SDS011;14871;52.702;5.230;2023-02-13T13:34:25;40.40;;;29.15;;
27412;SDS011;14871;52.702;5.230;2023-02-13T13:42:17;40.03;;;28.90;;
27412;SDS011;14871;52.702;5.230;2023-02-13T13:50:18;41.67;;;30.70;;
27412;SDS011;14871;52.702;5.230;2023-02-13T13:53:11;40.00;;;29.90;;
27412;SDS011;14871;52.702;5.230;2023-02-13T14:03:42;39.35;;;29.90;;
27412;SDS011;14871;52.702;5.230;2023-02-13T14:06:15;40.72;;;31.40;;
27412;SDS011;14871;52.702;5.230;2023-02-13T14:13:56;38.35;;;29.23;;
27412;SDS011;14871;52.702;5.230;2023-02-13T14:24:54;38.03;;;30.45;;
27412;SDS011;14871;52.702;5.230;2023-02-13T14:27:29;38.25;;;30.70;;
27412;SDS011;14871;52.702;5.230;2023-02-13T14:30:01;37.90;;;31.52;;
27412;SDS011;14871;52.702;5.230;2023-02-13T14:32:31;37.05;;;31.33;;
27412;SDS011;14871;52.702;5.230;2023-02-13T14:35:02;40.72;;;32.10;;
27412;SDS011;14871;52.702;5.230;2023-02-13T14:37:38;40.47;;;32.97;;
27412;SDS011;14871;52.702;5.230;2023-02-13T14:42:42;42.03;;;34.97;;
27412;SDS011;14871;52.702;5.230;2023-02-13T14:45:18;41.20;;;34.05;;
27412;SDS011;14871;52.702;5.230;2023-02-13T14:47:50;40.30;;;33.97;;
27412;SDS011;14871;52.702;5.230;2023-02-13T14:50:29;46.30;;;35.35;;
27412;SDS011;14871;52.702;5.230;2023-02-13T14:53:06;39.97;;;34.58;;
27412;SDS011;14871;52.702;5.230;2023-02-13T14:55:45;42.08;;;33.72;;
27412;SDS011;14871;52.702;5.230;2023-02-13T14:58:28;41.58;;;34.60;;
27412;SDS011;14871;52.702;5.230;2023-02-13T15:03:36;43.08;;;33.00;;
27412;SDS011;14871;52.702;5.230;2023-02-13T15:06:21;38.42;;;33.08;;
27412;SDS011;14871;52.702;5.230;2023-02-13T15:08:55;38.88;;;33.22;;
27412;SDS011;14871;52.702;5.230;2023-02-13T15:11:33;40.70;;;32.45;;
27412;SDS011;14871;52.702;5.230;2023-02-13T15:14:14;39.00;;;32.25;;
27412;SDS011;14871;52.702;5.230;2023-02-13T15:16:41;40.22;;;31.95;;
27412;SDS011;14871;52.702;5.230;2023-02-13T15:19:13;41.58;;;31.42;;
27412;SDS011;14871;52.702;5.230;2023-02-13T15:21:45;40.85;;;32.35;;
27412;SDS011;14871;52.702;5.230;2023-02-13T15:24:16;40.42;;;31.50;;
27412;SDS011;14871;52.702;5.230;2023-02-13T15:26:48;40.58;;;30.90;;
27412;SDS011;14871;52.702;5.230;2023-02-13T15:29:19;39.90;;;31.25;;
27412;SDS011;14871;52.702;5.230;2023-02-13T15:31:45;38.60;;;30.02;;
27412;SDS011;14871;52.702;5.230;2023-02-13T15:34:27;41.25;;;30.85;;
27412;SDS011;14871;52.702;5.230;2023-02-13T15:36:56;40.78;;;31.90;;
27412;SDS011;14871;52.702;5.230;2023-02-13T15:39:23;38.97;;;30.38;;
27412;SDS011;14871;52.702;5.230;2023-02-13T15:41:54;41.65;;;33.55;;
27412;SDS011;14871;52.702;5.230;2023-02-13T15:44:28;43.88;;;33.90;;
27412;SDS011;14871;52.702;5.230;2023-02-13T15:47:00;44.50;;;34.45;;
27412;SDS011;14871;52.702;5.230;2023-02-13T15:49:53;45.45;;;33.90;;
27412;SDS011;14871;52.702;5.230;2023-02-13T15:52:30;47.35;;;36.38;;
27412;SDS011;14871;52.702;5.230;2023-02-13T15:54:59;51.35;;;38.35;;
27412;SDS011;14871;52.702;5.230;2023-02-13T15:57:25;48.65;;;39.00;;
27412;SDS011;14871;52.702;5.230;2023-02-13T15:59:53;54.10;;;38.70;;
27412;SDS011;14871;52.702;5.230;2023-02-13T16:02:20;52.17;;;41.00;;
27412;SDS011;14871;52.702;5.230;2023-02-13T16:04:50;54.63;;;42.97;;
27412;SDS011;14871;52.702;5.230;2023-02-13T16:07:18;59.17;;;45.40;;
27412;SDS011;14871;52.702;5.230;2023-02-13T16:09:44;64.80;;;47.75;;
27412;SDS011;14871;52.702;5.230;2023-02-13T16:17:25;71.20;;;53.05;;
27412;SDS011;14871;52.702;5.230;2023-02-13T16:19:58;70.53;;;53.00;;
27412;SDS011;14871;52.702;5.230;2023-02-13T16:27:40;71.18;;;50.83;;
27412;SDS011;14871;52.702;5.230;2023-02-13T16:30:31;73.97;;;54.83;;
27412;SDS011;14871;52.702;5.230;2023-02-13T16:35:43;73.20;;;53.17;;
27412;SDS011;14871;52.702;5.230;2023-02-13T16:40:50;69.18;;;51.50;;
27412;SDS011;14871;52.702;5.230;2023-02-13T16:51:41;66.50;;;50.03;;
27412;SDS011;14871;52.702;5.230;2023-02-13T16:56:39;62.60;;;47.05;;
27412;SDS011;14871;52.702;5.230;2023-02-13T16:59:20;179.40;;;80.15;;
27412;SDS011;14871;52.702;5.230;2023-02-13T17:05:12;66.70;;;45.40;;
27412;SDS011;14871;52.702;5.230;2023-02-13T17:07:45;64.43;;;43.88;;
27412;SDS011;14871;52.702;5.230;2023-02-13T17:10:20;58.90;;;43.05;;
27412;SDS011;14871;52.702;5.230;2023-02-13T17:12:55;60.15;;;42.53;;
27412;SDS011;14871;52.702;5.230;2023-02-13T17:15:24;58.70;;;42.90;;
27412;SDS011;14871;52.702;5.230;2023-02-13T17:17:52;56.75;;;42.15;;
27412;SDS011;14871;52.702;5.230;2023-02-13T17:20:19;55.20;;;40.45;;
27412;SDS011;14871;52.702;5.230;2023-02-13T17:22:48;53.13;;;40.35;;
27412;SDS011;14871;52.702;5.230;2023-02-13T17:25:23;51.17;;;38.65;;
27412;SDS011;14871;52.702;5.230;2023-02-13T17:27:54;54.33;;;39.42;;
27412;SDS011;14871;52.702;5.230;2023-02-13T17:30:25;52.95;;;40.38;;
27412;SDS011;14871;52.702;5.230;2023-02-13T17:32:57;52.83;;;39.05;;
27412;SDS011;14871;52.702;5.230;2023-02-13T17:35:26;53.95;;;40.28;;
27412;SDS011;14871;52.702;5.230;2023-02-13T17:37:52;50.92;;;38.35;;
27412;SDS011;14871;52.702;5.230;2023-02-13T17:40:19;51.75;;;39.17;;
27412;SDS011;14871;52.702;5.230;2023-02-13T17:42:49;50.70;;;38.55;;